sensor_id;sensor_type;location;lat;lon;timestamp;pressure;altitude;pressure_sealevel;temperature;humidity
68871;BME280;55906;52.278;6.808;2023-04-25T00:00:11;100802.16;;;7.94;92.73
68871;BME280;55906;52.278;6.808;2023-04-25T00:02:38;100805.50;;;7.90;93.53
68871;BME280;55906;52.278;6.808;2023-04-25T00:05:07;100807.34;;;7.92;92.76
68871;BME280;55906;52.278;6.808;2023-04-25T00:07:33;100813.47;;;7.93;92.46
68871;BME280;55906;52.278;6.808;2023-04-25T00:10:00;100816.88;;;7.90;92.30
68871;BME280;55906;52.278;6.808;2023-04-25T00:12:27;100825.50;;;7.88;91.96
68871;BME280;55906;52.278;6.808;2023-04-25T00:14:54;100817.38;;;7.80;91.26
68871;BME280;55906;52.278;6.808;2023-04-25T00:17:22;100825.97;;;7.78;92.07
68871;BME280;55906;52.278;6.808;2023-04-25T00:19:49;100827.91;;;7.82;91.33
68871;BME280;55906;52.278;6.808;2023-04-25T00:22:18;100832.91;;;7.76;90.25
68871;BME280;55906;52.278;6.808;2023-04-25T00:24:44;100830.38;;;7.79;89.91
68871;BME280;55906;52.278;6.808;2023-04-25T00:27:11;100828.31;;;7.70;89.57
68871;BME280;55906;52.278;6.808;2023-04-25T00:29:38;100836.06;;;7.67;89.83
68871;BME280;55906;52.278;6.808;2023-04-25T00:32:04;100834.16;;;7.63;89.02
68871;BME280;55906;52.278;6.808;2023-04-25T00:34:31;100833.44;;;7.67;89.64
68871;BME280;55906;52.278;6.808;2023-04-25T00:36:57;100837.63;;;7.62;89.33
68871;BME280;55906;52.278;6.808;2023-04-25T00:39:27;100837.69;;;7.63;89.40
68871;BME280;55906;52.278;6.808;2023-04-25T00:41:54;100837.56;;;7.60;89.12
68871;BME280;55906;52.278;6.808;2023-04-25T00:44:21;100834.22;;;7.64;89.18
68871;BME280;55906;52.278;6.808;2023-04-25T00:46:48;100834.06;;;7.60;88.57
68871;BME280;55906;52.278;6.808;2023-04-25T00:49:15;100829.53;;;7.56;88.69
68871;BME280;55906;52.278;6.808;2023-04-25T00:51:42;100842.56;;;7.54;88.80
68871;BME280;55906;52.278;6.808;2023-04-25T00:54:10;100840.00;;;7.56;88.76
68871;BME280;55906;52.278;6.808;2023-04-25T00:56:39;100839.84;;;7.51;89.09
68871;BME280;55906;52.278;6.808;2023-04-25T00:59:05;100839.66;;;7.47;88.49
68871;BME280;55906;52.278;6.808;2023-04-25T01:01:33;100842.34;;;7.48;88.70
68871;BME280;55906;52.278;6.808;2023-04-25T01:04:01;100843.06;;;7.44;89.16
68871;BME280;55906;52.278;6.808;2023-04-25T01:06:27;100844.84;;;7.45;89.05
68871;BME280;55906;52.278;6.808;2023-04-25T01:08:54;100842.00;;;7.39;89.17
68871;BME280;55906;52.278;6.808;2023-04-25T01:11:21;100839.44;;;7.41;89.66
68871;BME280;55906;52.278;6.808;2023-04-25T01:13:49;100841.16;;;7.40;89.32
68871;BME280;55906;52.278;6.808;2023-04-25T01:16:15;100842.78;;;7.36;89.25
68871;BME280;55906;52.278;6.808;2023-04-25T01:18:42;100853.97;;;7.32;89.45
68871;BME280;55906;52.278;6.808;2023-04-25T01:21:12;100848.78;;;7.34;88.88
68871;BME280;55906;52.278;6.808;2023-04-25T01:23:39;100851.22;;;7.29;89.21
68871;BME280;55906;52.278;6.808;2023-04-25T01:26:06;100853.78;;;7.28;88.95
68871;BME280;55906;52.278;6.808;2023-04-25T01:28:34;100860.63;;;7.24;89.27
68871;BME280;55906;52.278;6.808;2023-04-25T01:31:02;100857.13;;;7.24;88.88
68871;BME280;55906;52.278;6.808;2023-04-25T01:33:29;100856.22;;;7.23;89.00
68871;BME280;55906;52.278;6.808;2023-04-25T01:35:55;100864.84;;;7.21;89.10
68871;BME280;55906;52.278;6.808;2023-04-25T01:38:23;100858.78;;;7.22;89.24
68871;BME280;55906;52.278;6.808;2023-04-25T01:40:51;100861.44;;;7.23;88.80
68871;BME280;55906;52.278;6.808;2023-04-25T01:43:17;100860.56;;;7.23;89.02
68871;BME280;55906;52.278;6.808;2023-04-25T01:45:44;100859.78;;;7.25;89.57
68871;BME280;55906;52.278;6.808;2023-04-25T01:48:12;100858.91;;;7.25;89.28
68871;BME280;55906;52.278;6.808;2023-04-25T01:50:39;100849.44;;;7.28;89.71
68871;BME280;55906;52.278;6.808;2023-04-25T01:53:09;100857.22;;;7.27;89.44
68871;BME280;55906;52.278;6.808;2023-04-25T01:55:37;100866.88;;;7.28;89.17
68871;BME280;55906;52.278;6.808;2023-04-25T01:58:04;100866.03;;;7.29;88.82
68871;BME280;55906;52.278;6.808;2023-04-25T02:00:34;100865.09;;;7.27;89.71
68871;BME280;55906;52.278;6.808;2023-04-25T02:03:03;100866.81;;;7.26;88.68
68871;BME280;55906;52.278;6.808;2023-04-25T02:05:34;100872.81;;;7.24;88.02
68871;BME280;55906;52.278;6.808;2023-04-25T02:08:01;100869.19;;;7.20;88.93
68871;BME280;55906;52.278;6.808;2023-04-25T02:10:28;100880.59;;;7.22;89.19
68871;BME280;55906;52.278;6.808;2023-04-25T02:12:56;100881.63;;;7.26;88.41
68871;BME280;55906;52.278;6.808;2023-04-25T02:15:23;100882.44;;;7.25;87.75
68871;BME280;55906;52.278;6.808;2023-04-25T02:17:50;100880.66;;;7.24;88.35
68871;BME280;55906;52.278;6.808;2023-04-25T02:20:17;100886.78;;;7.24;88.00
68871;BME280;55906;52.278;6.808;2023-04-25T02:22:45;100891.13;;;7.24;88.57
68871;BME280;55906;52.278;6.808;2023-04-25T02:25:11;100890.28;;;7.25;88.10
68871;BME280;55906;52.278;6.808;2023-04-25T02:27:38;100886.72;;;7.23;87.69
68871;BME280;55906;52.278;6.808;2023-04-25T02:30:07;100893.75;;;7.24;87.98
68871;BME280;55906;52.278;6.808;2023-04-25T02:32:34;100891.84;;;7.20;88.19
68871;BME280;55906;52.278;6.808;2023-04-25T02:35:01;100902.25;;;7.18;87.87
68871;BME280;55906;52.278;6.808;2023-04-25T02:37:29;100908.31;;;7.17;87.87
68871;BME280;55906;52.278;6.808;2023-04-25T02:39:55;100902.06;;;7.14;87.18
68871;BME280;55906;52.278;6.808;2023-04-25T02:42:22;100905.38;;;7.10;86.62
68871;BME280;55906;52.278;6.808;2023-04-25T02:44:49;100908.06;;;7.11;87.34
68871;BME280;55906;52.278;6.808;2023-04-25T02:47:17;100913.09;;;7.06;87.39
68871;BME280;55906;52.278;6.808;2023-04-25T02:49:43;100921.84;;;7.07;87.13
68871;BME280;55906;52.278;6.808;2023-04-25T02:52:10;100917.50;;;7.07;87.07
68871;BME280;55906;52.278;6.808;2023-04-25T02:54:37;100914.66;;;7.01;86.96
68871;BME280;55906;52.278;6.808;2023-04-25T02:57:04;100920.81;;;7.03;86.96
68871;BME280;55906;52.278;6.808;2023-04-25T02:59:31;100923.56;;;7.06;86.86
68871;BME280;55906;52.278;6.808;2023-04-25T03:01:57;100924.22;;;7.01;86.89
68871;BME280;55906;52.278;6.808;2023-04-25T03:04:25;100919.88;;;7.01;85.71
68871;BME280;55906;52.278;6.808;2023-04-25T03:06:52;100927.78;;;7.03;85.94
68871;BME280;55906;52.278;6.808;2023-04-25T03:09:19;100925.94;;;7.00;86.31
68871;BME280;55906;52.278;6.808;2023-04-25T03:11:46;100929.38;;;6.99;86.09
68871;BME280;55906;52.278;6.808;2023-04-25T03:14:13;100931.88;;;6.96;85.30
68871;BME280;55906;52.278;6.808;2023-04-25T03:16:40;100928.38;;;6.96;85.65
68871;BME280;55906;52.278;6.808;2023-04-25T03:19:07;100935.13;;;6.91;85.57
68871;BME280;55906;52.278;6.808;2023-04-25T03:21:35;100942.34;;;6.96;85.47
68871;BME280;55906;52.278;6.808;2023-04-25T03:24:03;100930.16;;;6.97;85.22
68871;BME280;55906;52.278;6.808;2023-04-25T03:26:30;100935.38;;;6.97;84.49
68871;BME280;55906;52.278;6.808;2023-04-25T03:28:57;100938.88;;;6.97;85.70
68871;BME280;55906;52.278;6.808;2023-04-25T03:31:24;100942.34;;;6.96;85.40
68871;BME280;55906;52.278;6.808;2023-04-25T03:33:51;100943.22;;;6.97;85.12
68871;BME280;55906;52.278;6.808;2023-04-25T03:36:17;100941.44;;;6.96;84.84
68871;BME280;55906;52.278;6.808;2023-04-25T03:38:45;100939.72;;;6.96;85.21
68871;BME280;55906;52.278;6.808;2023-04-25T03:41:13;100933.59;;;6.96;84.55
68871;BME280;55906;52.278;6.808;2023-04-25T03:43:40;100935.31;;;6.95;84.63
68871;BME280;55906;52.278;6.808;2023-04-25T03:46:06;100937.88;;;6.94;84.83
68871;BME280;55906;52.278;6.808;2023-04-25T03:48:33;100940.28;;;6.89;84.63
68871;BME280;55906;52.278;6.808;2023-04-25T03:51:00;100944.44;;;6.84;84.35
68871;BME280;55906;52.278;6.808;2023-04-25T03:53:26;100955.59;;;6.80;83.66
68871;BME280;55906;52.278;6.808;2023-04-25T03:55:54;100947.00;;;6.83;84.56
68871;BME280;55906;52.278;6.808;2023-04-25T03:58:21;100958.22;;;6.80;84.43
68871;BME280;55906;52.278;6.808;2023-04-25T04:00:50;100966.06;;;6.80;84.58
68871;BME280;55906;52.278;6.808;2023-04-25T04:03:17;100957.06;;;6.73;84.85
68871;BME280;55906;52.278;6.808;2023-04-25T04:05:46;100962.34;;;6.75;84.23
68871;BME280;55906;52.278;6.808;2023-04-25T04:08:13;100962.28;;;6.73;84.83
68871;BME280;55906;52.278;6.808;2023-04-25T04:10:40;100962.16;;;6.70;84.97
68871;BME280;55906;52.278;6.808;2023-04-25T04:13:08;100970.06;;;6.72;85.11
68871;BME280;55906;52.278;6.808;2023-04-25T04:15:35;100981.22;;;6.68;84.79
68871;BME280;55906;52.278;6.808;2023-04-25T04:18:02;100969.94;;;6.69;84.73
68871;BME280;55906;52.278;6.808;2023-04-25T04:20:29;100969.94;;;6.69;85.71
68871;BME280;55906;52.278;6.808;2023-04-25T04:22:56;100964.72;;;6.69;84.71
68871;BME280;55906;52.278;6.808;2023-04-25T04:25:23;100969.94;;;6.69;84.67
68871;BME280;55906;52.278;6.808;2023-04-25T04:27:50;100966.50;;;6.70;85.44
68871;BME280;55906;52.278;6.808;2023-04-25T04:30:21;100969.94;;;6.69;84.67
68871;BME280;55906;52.278;6.808;2023-04-25T04:32:49;100989.94;;;6.68;84.51
68871;BME280;55906;52.278;6.808;2023-04-25T04:35:15;100984.66;;;6.67;84.11
68871;BME280;55906;52.278;6.808;2023-04-25T04:37:42;100988.22;;;6.69;84.71
68871;BME280;55906;52.278;6.808;2023-04-25T04:40:11;100992.56;;;6.68;84.98
68871;BME280;55906;52.278;6.808;2023-04-25T04:42:40;100988.03;;;6.64;85.12
68871;BME280;55906;52.278;6.808;2023-04-25T04:45:08;100996.63;;;6.62;85.09
68871;BME280;55906;52.278;6.808;2023-04-25T04:47:36;100991.59;;;6.66;84.41
68871;BME280;55906;52.278;6.808;2023-04-25T04:50:05;101001.38;;;6.70;85.15
68871;BME280;55906;52.278;6.808;2023-04-25T04:52:33;101009.22;;;6.70;85.13
68871;BME280;55906;52.278;6.808;2023-04-25T04:55:00;101011.81;;;6.70;85.04
68871;BME280;55906;52.278;6.808;2023-04-25T04:57:28;101012.78;;;6.72;84.72
68871;BME280;55906;52.278;6.808;2023-04-25T04:59:55;101011.88;;;6.72;84.70
68871;BME280;55906;52.278;6.808;2023-04-25T05:02:21;101012.03;;;6.75;84.82
68871;BME280;55906;52.278;6.808;2023-04-25T05:04:49;101019.09;;;6.78;84.58
68871;BME280;55906;52.278;6.808;2023-04-25T05:07:16;101027.16;;;6.82;84.14
68871;BME280;55906;52.278;6.808;2023-04-25T05:09:43;101025.44;;;6.83;84.44
68871;BME280;55906;52.278;6.808;2023-04-25T05:12:10;101026.59;;;6.89;84.81
68871;BME280;55906;52.278;6.808;2023-04-25T05:14:37;101035.50;;;6.94;84.51
68871;BME280;55906;52.278;6.808;2023-04-25T05:17:03;101035.59;;;6.96;84.59
68871;BME280;55906;52.278;6.808;2023-04-25T05:19:33;101044.38;;;6.98;84.21
68871;BME280;55906;52.278;6.808;2023-04-25T05:22:02;101036.66;;;7.01;83.42
68871;BME280;55906;52.278;6.808;2023-04-25T05:24:29;101039.41;;;7.04;83.48
68871;BME280;55906;52.278;6.808;2023-04-25T05:26:56;101042.28;;;7.10;83.26
68871;BME280;55906;52.278;6.808;2023-04-25T05:29:22;101041.41;;;7.10;82.56
68871;BME280;55906;52.278;6.808;2023-04-25T05:31:49;101044.28;;;7.16;83.42
68871;BME280;55906;52.278;6.808;2023-04-25T05:34:15;101047.28;;;7.25;82.85
68871;BME280;55906;52.278;6.808;2023-04-25T05:36:42;101043.81;;;7.26;83.17
68871;BME280;55906;52.278;6.808;2023-04-25T05:39:10;101057.16;;;7.32;83.02
68871;BME280;55906;52.278;6.808;2023-04-25T05:41:37;101053.91;;;7.37;82.58
68871;BME280;55906;52.278;6.808;2023-04-25T05:44:05;101061.88;;;7.41;82.01
68871;BME280;55906;52.278;6.808;2023-04-25T05:46:31;101068.16;;;7.44;81.93
68871;BME280;55906;52.278;6.808;2023-04-25T05:48:58;101066.22;;;7.40;81.27
68871;BME280;55906;52.278;6.808;2023-04-25T05:51:25;101064.50;;;7.41;80.14
68871;BME280;55906;52.278;6.808;2023-04-25T05:53:53;101071.41;;;7.38;80.89
68871;BME280;55906;52.278;6.808;2023-04-25T05:56:21;101069.81;;;7.42;80.57
68871;BME280;55906;52.278;6.808;2023-04-25T05:58:47;101080.41;;;7.45;80.34
68871;BME280;55906;52.278;6.808;2023-04-25T06:01:14;101084.16;;;7.52;80.40
68871;BME280;55906;52.278;6.808;2023-04-25T06:03:41;101085.06;;;7.52;80.37
68871;BME280;55906;52.278;6.808;2023-04-25T06:06:08;101084.41;;;7.58;80.50
68871;BME280;55906;52.278;6.808;2023-04-25T06:08:35;101085.56;;;7.64;79.18
68871;BME280;55906;52.278;6.808;2023-04-25T06:11:03;101094.38;;;7.66;78.92
68871;BME280;55906;52.278;6.808;2023-04-25T06:13:31;101091.28;;;7.77;79.58
68871;BME280;55906;52.278;6.808;2023-04-25T06:15:57;101102.94;;;7.83;79.58
68871;BME280;55906;52.278;6.808;2023-04-25T06:18:24;101097.50;;;7.79;77.55
68871;BME280;55906;52.278;6.808;2023-04-25T06:20:50;101097.59;;;7.80;77.05
68871;BME280;55906;52.278;6.808;2023-04-25T06:23:17;101097.84;;;7.86;76.89
68871;BME280;55906;52.278;6.808;2023-04-25T06:25:44;101106.00;;;7.94;76.51
68871;BME280;55906;52.278;6.808;2023-04-25T06:28:10;101102.59;;;7.96;74.97
68871;BME280;55906;52.278;6.808;2023-04-25T06:30:38;101104.75;;;8.07;74.92
68871;BME280;55906;52.278;6.808;2023-04-25T06:33:05;101109.66;;;8.20;75.76
68871;BME280;55906;52.278;6.808;2023-04-25T06:35:33;101104.97;;;8.33;75.91
68871;BME280;55906;52.278;6.808;2023-04-25T06:38:00;101108.22;;;8.28;74.04
68871;BME280;55906;52.278;6.808;2023-04-25T06:40:27;101113.84;;;8.37;73.82
68871;BME280;55906;52.278;6.808;2023-04-25T06:42:53;101116.75;;;8.45;73.22
68871;BME280;55906;52.278;6.808;2023-04-25T06:45:20;101109.84;;;8.47;70.64
68871;BME280;55906;52.278;6.808;2023-04-25T06:47:48;101118.19;;;8.59;72.05
68871;BME280;55906;52.278;6.808;2023-04-25T06:50:14;101126.16;;;8.62;71.31
68871;BME280;55906;52.278;6.808;2023-04-25T06:52:41;101118.41;;;8.65;72.10
68871;BME280;55906;52.278;6.808;2023-04-25T06:55:08;101126.50;;;8.71;73.00
68871;BME280;55906;52.278;6.808;2023-04-25T06:57:35;101137.66;;;8.65;70.38
68871;BME280;55906;52.278;6.808;2023-04-25T07:00:03;101139.66;;;8.73;70.91
68871;BME280;55906;52.278;6.808;2023-04-25T07:02:33;101147.38;;;8.92;69.76
68871;BME280;55906;52.278;6.808;2023-04-25T07:05:01;101141.41;;;8.96;68.95
68871;BME280;55906;52.278;6.808;2023-04-25T07:07:29;101135.78;;;8.85;68.55
68871;BME280;55906;52.278;6.808;2023-04-25T07:09:56;101142.19;;;8.93;67.82
68871;BME280;55906;52.278;6.808;2023-04-25T07:12:22;101143.38;;;9.02;68.75
68871;BME280;55906;52.278;6.808;2023-04-25T07:14:49;101137.91;;;8.95;67.38
68871;BME280;55906;52.278;6.808;2023-04-25T07:17:15;101135.44;;;9.00;68.27
68871;BME280;55906;52.278;6.808;2023-04-25T07:19:42;101133.47;;;8.94;68.07
68871;BME280;55906;52.278;6.808;2023-04-25T07:22:10;101134.53;;;8.99;68.10
68871;BME280;55906;52.278;6.808;2023-04-25T07:24:37;101129.47;;;9.04;67.91
68871;BME280;55906;52.278;6.808;2023-04-25T07:27:03;101140.69;;;9.00;66.42
68871;BME280;55906;52.278;6.808;2023-04-25T07:29:30;101136.81;;;9.13;65.29
68871;BME280;55906;52.278;6.808;2023-04-25T07:31:57;101141.28;;;9.15;65.59
68871;BME280;55906;52.278;6.808;2023-04-25T07:34:24;101139.41;;;9.37;66.09
68871;BME280;55906;52.278;6.808;2023-04-25T07:36:50;101138.47;;;9.60;64.72
68871;BME280;55906;52.278;6.808;2023-04-25T07:39:19;101140.56;;;9.97;64.82
68871;BME280;55906;52.278;6.808;2023-04-25T07:41:45;101141.34;;;10.20;64.03
68871;BME280;55906;52.278;6.808;2023-04-25T07:44:12;101139.09;;;10.32;62.72
68871;BME280;55906;52.278;6.808;2023-04-25T07:46:39;101150.22;;;10.50;62.32
68871;BME280;55906;52.278;6.808;2023-04-25T07:49:05;101149.25;;;10.77;61.56
68871;BME280;55906;52.278;6.808;2023-04-25T07:51:32;101142.56;;;10.88;59.28
68871;BME280;55906;52.278;6.808;2023-04-25T07:53:58;101149.31;;;11.10;58.73
68871;BME280;55906;52.278;6.808;2023-04-25T07:56:27;101149.56;;;11.19;55.45
68871;BME280;55906;52.278;6.808;2023-04-25T07:58:53;101153.47;;;11.02;54.89
68871;BME280;55906;52.278;6.808;2023-04-25T08:01:20;101155.59;;;11.15;55.45
68871;BME280;55906;52.278;6.808;2023-04-25T08:03:47;101164.06;;;11.03;53.47
68871;BME280;55906;52.278;6.808;2023-04-25T08:06:13;101162.44;;;10.78;53.16
68871;BME280;55906;52.278;6.808;2023-04-25T08:08:40;101175.66;;;10.80;53.75
68871;BME280;55906;52.278;6.808;2023-04-25T08:11:07;101171.16;;;10.76;53.26
68871;BME280;55906;52.278;6.808;2023-04-25T08:13:34;101174.28;;;10.93;53.44
68871;BME280;55906;52.278;6.808;2023-04-25T08:16:01;101178.97;;;11.03;52.58
68871;BME280;55906;52.278;6.808;2023-04-25T08:18:28;101175.16;;;10.93;52.19
68871;BME280;55906;52.278;6.808;2023-04-25T08:20:56;101190.06;;;11.22;53.79
68871;BME280;55906;52.278;6.808;2023-04-25T08:23:22;101191.63;;;11.16;52.78
68871;BME280;55906;52.278;6.808;2023-04-25T08:25:49;101190.59;;;11.11;51.86
68871;BME280;55906;52.278;6.808;2023-04-25T08:28:15;101189.13;;;11.52;51.06
68871;BME280;55906;52.278;6.808;2023-04-25T08:30:43;101191.63;;;11.77;51.69
68871;BME280;55906;52.278;6.808;2023-04-25T08:33:10;101203.38;;;11.90;51.39
68871;BME280;55906;52.278;6.808;2023-04-25T08:35:37;101203.25;;;11.85;48.11
68871;BME280;55906;52.278;6.808;2023-04-25T08:38:03;101203.38;;;11.90;48.93
68871;BME280;55906;52.278;6.808;2023-04-25T08:40:31;101208.22;;;12.08;50.08
68871;BME280;55906;52.278;6.808;2023-04-25T08:43:03;101203.50;;;12.31;50.42
68871;BME280;55906;52.278;6.808;2023-04-25T08:45:32;101208.78;;;12.31;48.75
68871;BME280;55906;52.278;6.808;2023-04-25T08:48:01;101206.84;;;12.61;50.06
68871;BME280;55906;52.278;6.808;2023-04-25T08:50:29;101214.94;;;12.69;48.08
68871;BME280;55906;52.278;6.808;2023-04-25T08:52:59;101221.19;;;12.72;48.36
68871;BME280;55906;52.278;6.808;2023-04-25T08:55:30;101226.69;;;12.44;49.93
68871;BME280;55906;52.278;6.808;2023-04-25T08:57:59;101213.84;;;12.59;48.43
68871;BME280;55906;52.278;6.808;2023-04-25T09:00:26;101226.88;;;12.91;47.40
68871;BME280;55906;52.278;6.808;2023-04-25T09:02:52;101235.16;;;13.06;48.02
68871;BME280;55906;52.278;6.808;2023-04-25T09:05:21;101232.22;;;12.94;44.77
68871;BME280;55906;52.278;6.808;2023-04-25T09:07:48;101252.06;;;13.14;46.59
68871;BME280;55906;52.278;6.808;2023-04-25T09:10:14;101251.50;;;13.27;46.40
68871;BME280;55906;52.278;6.808;2023-04-25T09:12:41;101246.56;;;12.66;46.73
68871;BME280;55906;52.278;6.808;2023-04-25T09:15:09;101251.63;;;12.57;48.32
68871;BME280;55906;52.278;6.808;2023-04-25T09:17:36;101261.81;;;12.41;47.30
68871;BME280;55906;52.278;6.808;2023-04-25T09:20:07;101258.00;;;12.30;47.33
68871;BME280;55906;52.278;6.808;2023-04-25T09:22:36;101256.56;;;12.80;46.22
68871;BME280;55906;52.278;6.808;2023-04-25T09:25:04;101254.94;;;13.23;46.63
68871;BME280;55906;52.278;6.808;2023-04-25T09:27:34;101255.88;;;13.69;46.39
68871;BME280;55906;52.278;6.808;2023-04-25T09:30:01;101252.03;;;13.98;44.60
68871;BME280;55906;52.278;6.808;2023-04-25T09:32:28;101251.84;;;13.89;45.23
68871;BME280;55906;52.278;6.808;2023-04-25T09:34:56;101262.72;;;14.04;44.33
68871;BME280;55906;52.278;6.808;2023-04-25T09:37:23;101253.31;;;14.71;43.63
68871;BME280;55906;52.278;6.808;2023-04-25T09:39:53;101260.50;;;14.82;41.29
68871;BME280;55906;52.278;6.808;2023-04-25T09:42:22;101262.47;;;14.40;41.50
68871;BME280;55906;52.278;6.808;2023-04-25T09:44:52;101288.41;;;13.65;45.12
68871;BME280;55906;52.278;6.808;2023-04-25T09:47:19;101303.59;;;12.59;51.08
68871;BME280;55906;52.278;6.808;2023-04-25T09:49:47;101313.16;;;11.60;56.13
68871;BME280;55906;52.278;6.808;2023-04-25T09:52:16;101308.41;;;11.46;58.12
68871;BME280;55906;52.278;6.808;2023-04-25T09:54:44;101310.75;;;11.37;58.84
68871;BME280;55906;52.278;6.808;2023-04-25T09:57:14;101308.94;;;11.65;57.29
68871;BME280;55906;52.278;6.808;2023-04-25T09:59:44;101310.53;;;11.60;57.65
68871;BME280;55906;52.278;6.808;2023-04-25T10:02:13;101306.19;;;12.23;54.17
68871;BME280;55906;52.278;6.808;2023-04-25T10:04:41;101308.59;;;13.19;52.08
68871;BME280;55906;52.278;6.808;2023-04-25T10:07:08;101306.78;;;13.59;51.32
68871;BME280;55906;52.278;6.808;2023-04-25T10:09:37;101318.78;;;13.85;50.93
68871;BME280;55906;52.278;6.808;2023-04-25T10:12:05;101312.31;;;14.16;47.29
68871;BME280;55906;52.278;6.808;2023-04-25T10:14:34;101310.63;;;14.20;49.04
68871;BME280;55906;52.278;6.808;2023-04-25T10:17:01;101321.53;;;13.91;48.87
68871;BME280;55906;52.278;6.808;2023-04-25T10:19:28;101319.28;;;13.66;48.88
68871;BME280;55906;52.278;6.808;2023-04-25T10:22:03;101318.72;;;13.82;47.13
68871;BME280;55906;52.278;6.808;2023-04-25T10:24:30;101312.91;;;14.45;47.17
68871;BME280;55906;52.278;6.808;2023-04-25T10:26:58;101309.25;;;14.93;45.11
68871;BME280;55906;52.278;6.808;2023-04-25T10:29:26;101315.63;;;15.67;45.77
68871;BME280;55906;52.278;6.808;2023-04-25T10:31:54;101302.97;;;16.24;44.23
68871;BME280;55906;52.278;6.808;2023-04-25T10:34:25;101302.31;;;16.49;40.63
68871;BME280;55906;52.278;6.808;2023-04-25T10:37:03;101301.00;;;17.02;41.07
68871;BME280;55906;52.278;6.808;2023-04-25T10:39:30;101306.44;;;17.18;41.79
68871;BME280;55906;52.278;6.808;2023-04-25T10:42:01;101305.81;;;17.68;40.32
68871;BME280;55906;52.278;6.808;2023-04-25T10:44:29;101307.72;;;18.09;40.59
68871;BME280;55906;52.278;6.808;2023-04-25T10:47:00;101300.69;;;18.47;37.19
68871;BME280;55906;52.278;6.808;2023-04-25T10:49:29;101299.66;;;17.78;37.08
68871;BME280;55906;52.278;6.808;2023-04-25T10:52:19;101316.91;;;16.91;34.91
68871;BME280;55906;52.278;6.808;2023-04-25T10:54:52;101309.06;;;17.11;34.90
68871;BME280;55906;52.278;6.808;2023-04-25T10:57:30;101311.13;;;17.68;33.53
68871;BME280;55906;52.278;6.808;2023-04-25T11:00:01;101309.44;;;17.90;35.08
68871;BME280;55906;52.278;6.808;2023-04-25T11:02:36;101301.63;;;18.62;34.61
68871;BME280;55906;52.278;6.808;2023-04-25T11:05:04;101325.34;;;17.72;37.05
68871;BME280;55906;52.278;6.808;2023-04-25T11:07:34;101328.41;;;16.91;41.20
68871;BME280;55906;52.278;6.808;2023-04-25T11:10:04;101338.00;;;15.89;43.72
68871;BME280;55906;52.278;6.808;2023-04-25T11:12:32;101333.09;;;15.55;43.71
68871;BME280;55906;52.278;6.808;2023-04-25T11:14:59;101332.75;;;15.29;44.00
68871;BME280;55906;52.278;6.808;2023-04-25T11:17:27;101325.41;;;15.10;43.62
68871;BME280;55906;52.278;6.808;2023-04-25T11:19:55;101323.50;;;15.01;43.22
68871;BME280;55906;52.278;6.808;2023-04-25T11:22:23;101325.59;;;14.66;43.18
68871;BME280;55906;52.278;6.808;2023-04-25T11:24:49;101335.91;;;14.49;43.00
68871;BME280;55906;52.278;6.808;2023-04-25T11:27:17;101337.03;;;14.17;42.45
68871;BME280;55906;52.278;6.808;2023-04-25T11:29:43;101343.63;;;14.38;42.61
68871;BME280;55906;52.278;6.808;2023-04-25T11:32:10;101332.69;;;14.22;42.05
68871;BME280;55906;52.278;6.808;2023-04-25T11:34:37;101323.44;;;14.42;41.34
68871;BME280;55906;52.278;6.808;2023-04-25T11:37:05;101326.38;;;14.60;41.31
68871;BME280;55906;52.278;6.808;2023-04-25T11:39:31;101326.31;;;14.56;39.42
68871;BME280;55906;52.278;6.808;2023-04-25T11:41:58;101343.44;;;14.78;40.27
68871;BME280;55906;52.278;6.808;2023-04-25T11:44:26;101330.66;;;15.07;39.78
68871;BME280;55906;52.278;6.808;2023-04-25T11:46:53;101327.06;;;15.62;39.66
68871;BME280;55906;52.278;6.808;2023-04-25T11:49:19;101322.94;;;16.75;38.73
68871;BME280;55906;52.278;6.808;2023-04-25T11:51:48;101319.13;;;16.48;38.50
68871;BME280;55906;52.278;6.808;2023-04-25T11:54:16;101329.34;;;16.98;37.53
68871;BME280;55906;52.278;6.808;2023-04-25T11:56:43;101348.88;;;16.11;40.76
68871;BME280;55906;52.278;6.808;2023-04-25T11:59:10;101365.06;;;15.05;42.62
68871;BME280;55906;52.278;6.808;2023-04-25T12:01:38;101357.19;;;14.55;44.80
68871;BME280;55906;52.278;6.808;2023-04-25T12:04:11;101364.69;;;14.32;45.53
68871;BME280;55906;52.278;6.808;2023-04-25T12:06:39;101366.56;;;13.94;46.30
68871;BME280;55906;52.278;6.808;2023-04-25T12:09:07;101359.41;;;13.47;48.38
68871;BME280;55906;52.278;6.808;2023-04-25T12:11:42;101368.66;;;13.28;47.60
68871;BME280;55906;52.278;6.808;2023-04-25T12:14:09;101377.97;;;13.50;48.11
68871;BME280;55906;52.278;6.808;2023-04-25T12:16:42;101367.22;;;13.83;46.89
68871;BME280;55906;52.278;6.808;2023-04-25T12:19:09;101378.06;;;13.96;46.00
68871;BME280;55906;52.278;6.808;2023-04-25T12:21:36;101375.84;;;14.18;45.97
68871;BME280;55906;52.278;6.808;2023-04-25T12:24:13;101374.81;;;15.06;44.17
68871;BME280;55906;52.278;6.808;2023-04-25T12:26:48;101370.84;;;15.97;42.80
68871;BME280;55906;52.278;6.808;2023-04-25T12:29:16;101368.41;;;16.19;39.70
68871;BME280;55906;52.278;6.808;2023-04-25T12:31:43;101368.78;;;16.55;41.62
68871;BME280;55906;52.278;6.808;2023-04-25T12:34:10;101364.63;;;16.82;39.51
68871;BME280;55906;52.278;6.808;2023-04-25T12:36:37;101372.28;;;16.51;40.13
68871;BME280;55906;52.278;6.808;2023-04-25T12:39:03;101368.31;;;16.94;37.26
68871;BME280;55906;52.278;6.808;2023-04-25T12:41:30;101366.75;;;17.25;36.42
68871;BME280;55906;52.278;6.808;2023-04-25T12:43:58;101369.53;;;17.45;35.90
68871;BME280;55906;52.278;6.808;2023-04-25T12:46:25;101373.09;;;17.49;34.08
68871;BME280;55906;52.278;6.808;2023-04-25T12:48:51;101362.28;;;17.21;35.09
68871;BME280;55906;52.278;6.808;2023-04-25T12:51:18;101365.56;;;16.88;35.18
68871;BME280;55906;52.278;6.808;2023-04-25T12:53:44;101368.22;;;16.88;36.33
68871;BME280;55906;52.278;6.808;2023-04-25T12:56:11;101367.53;;;16.18;36.98